createdAt,value
2023-01-30T00:01:41.926Z,102103.16
2023-01-30T00:04:12.384Z,102092.97
2023-01-30T00:06:40.673Z,102092.69
2023-01-30T00:09:09.359Z,102103.31
2023-01-30T00:11:37.392Z,102098.59
2023-01-30T00:14:05.494Z,102097.44
2023-01-30T00:16:33.602Z,102093.06
2023-01-30T00:19:03.052Z,102085.81
2023-01-30T00:21:31.171Z,102090.03
2023-01-30T00:24:00.946Z,102091.72
2023-01-30T00:26:29.039Z,102093.72
2023-01-30T00:28:57.066Z,102088.00
2023-01-30T00:31:25.384Z,102084.34
2023-01-30T00:33:53.415Z,102092.09
2023-01-30T00:36:26.210Z,102094.09
2023-01-30T00:38:54.416Z,102092.94
2023-01-30T00:41:22.908Z,102085.38
2023-01-30T00:44:08.677Z,102079.97
2023-01-30T00:46:54.188Z,102090.13
2023-01-30T00:49:22.252Z,102099.91
2023-01-30T00:51:51.795Z,102095.53
2023-01-30T00:54:19.917Z,102092.34
2023-01-30T00:56:48.083Z,102091.50
2023-01-30T00:59:16.210Z,102095.56
2023-01-30T01:01:44.317Z,102090.88
2023-01-30T01:04:12.268Z,102087.69
2023-01-30T01:06:41.453Z,102085.66
2023-01-30T01:09:10.877Z,102080.78
2023-01-30T01:11:39.234Z,102072.88
2023-01-30T01:14:08.532Z,102063.63
2023-01-30T01:16:38.128Z,102061.91
2023-01-30T01:19:06.262Z,102050.13
2023-01-30T01:21:34.810Z,102047.25
2023-01-30T01:24:02.998Z,102050.97
2023-01-30T01:26:32.449Z,102057.03
2023-01-30T01:29:00.898Z,102057.88
2023-01-30T01:31:29.186Z,102051.13
2023-01-30T01:33:58.009Z,102052.84
2023-01-30T01:39:15.157Z,102036.00
2023-01-30T01:41:43.767Z,102039.72
2023-01-30T01:44:12.954Z,102021.16
2023-01-30T01:46:46.025Z,102025.91
2023-01-30T01:49:18.374Z,102023.19
2023-01-30T01:51:53.487Z,102018.31
2023-01-30T01:54:30.856Z,102012.41
2023-01-30T01:57:03.945Z,102014.91
2023-01-30T01:59:37.713Z,102014.41
2023-01-30T02:02:11.776Z,102014.59
2023-01-30T02:05:00.938Z,102016.63
2023-01-30T02:07:33.908Z,102010.34
2023-01-30T02:10:02.591Z,102016.41
2023-01-30T02:12:32.449Z,102020.47
2023-01-30T02:15:01.871Z,102023.81
2023-01-30T02:17:31.525Z,102021.31
2023-01-30T02:20:06.146Z,102017.44
2023-01-30T02:23:21.872Z,102022.81
2023-01-30T02:26:13.978Z,102018.25
2023-01-30T02:29:02.602Z,102020.09
2023-01-30T02:31:41.616Z,102016.03
2023-01-30T02:34:23.265Z,102011.84
2023-01-30T02:37:02.404Z,102018.75
2023-01-30T02:39:40.650Z,102026.38
2023-01-30T02:42:17.290Z,102028.94
2023-01-30T02:44:54.200Z,102035.66
2023-01-30T02:47:30.860Z,102031.81
2023-01-30T02:50:04.882Z,102028.63
2023-01-30T02:52:34.389Z,102038.41
2023-01-30T02:55:09.801Z,102043.31
2023-01-30T02:57:39.148Z,102042.84
2023-01-30T03:00:08.915Z,102049.25
2023-01-30T03:03:02.220Z,102055.66
2023-01-30T03:05:45.861Z,102052.78
2023-01-30T03:08:26.481Z,102049.25
2023-01-30T03:11:01.961Z,102045.88
2023-01-30T03:13:45.633Z,102055.00
2023-01-30T03:16:20.205Z,102052.97
2023-01-30T03:18:52.501Z,102050.97
2023-01-30T03:21:20.776Z,102046.22
2023-01-30T03:23:48.878Z,102042.19
2023-01-30T03:26:21.194Z,102048.91
2023-01-30T03:28:51.657Z,102054.50
2023-01-30T03:31:21.109Z,102058.03
2023-01-30T03:33:50.199Z,102050.97
2023-01-30T03:36:20.034Z,102063.44
2023-01-30T03:38:48.118Z,102054.66
2023-01-30T03:41:16.459Z,102045.38
2023-01-30T03:43:44.760Z,102048.25
2023-01-30T03:46:12.832Z,102050.09
2023-01-30T03:48:40.866Z,102045.22
2023-01-30T03:51:12.268Z,102050.78
2023-01-30T03:53:41.761Z,102045.88
2023-01-30T03:56:11.152Z,102053.31
2023-01-30T03:58:39.887Z,102055.84
2023-01-30T04:01:30.523Z,102040.66
2023-01-30T04:03:59.053Z,102033.25
2023-01-30T04:06:28.051Z,102028.31
2023-01-30T04:08:58.663Z,102042.84
2023-01-30T04:11:36.455Z,102039.28
2023-01-30T04:14:04.745Z,102047.03
2023-01-30T04:16:35.662Z,102056.16
2023-01-30T04:19:32.281Z,102057.34
2023-01-30T04:22:00.412Z,102061.91
2023-01-30T04:24:29.836Z,102066.47
2023-01-30T04:26:58.038Z,102060.22
2023-01-30T04:29:26.840Z,102065.78
2023-01-30T04:31:56.320Z,102066.25
2023-01-30T04:34:27.715Z,102073.88
2023-01-30T04:36:55.713Z,102082.13
2023-01-30T04:39:24.285Z,102077.91
2023-01-30T04:41:53.803Z,102077.91
2023-01-30T04:44:21.806Z,102084.00
2023-01-30T04:46:57.460Z,102082.34
2023-01-30T04:49:25.673Z,102072.69
2023-01-30T04:51:56.095Z,102086.38
2023-01-30T04:54:24.380Z,102092.47
2023-01-30T04:56:53.924Z,102090.94
2023-01-30T04:59:22.008Z,102091.13
2023-01-30T05:01:51.303Z,102097.88
2023-01-30T05:04:19.436Z,102097.72
2023-01-30T05:06:48.543Z,102113.41
2023-01-30T05:09:16.606Z,102115.63
2023-01-30T05:11:44.583Z,102111.75
2023-01-30T05:14:13.928Z,102116.81
2023-01-30T05:16:41.978Z,102111.75
2023-01-30T05:19:12.034Z,102102.97
2023-01-30T05:21:40.059Z,102119.03
2023-01-30T05:24:08.831Z,102125.28
2023-01-30T05:26:36.805Z,102119.38
2023-01-30T05:29:04.855Z,102126.28
2023-01-30T05:31:35.700Z,102125.97
2023-01-30T05:34:03.717Z,102125.63
2023-01-30T05:36:31.792Z,102137.28
2023-01-30T05:38:59.955Z,102133.56
2023-01-30T05:41:27.901Z,102135.41
2023-01-30T05:43:55.948Z,102132.88
2023-01-30T05:46:26.910Z,102122.91
2023-01-30T05:48:56.189Z,102129.34
2023-01-30T05:51:25.797Z,102126.94
2023-01-30T05:53:54.321Z,102132.53
2023-01-30T05:56:24.535Z,102129.66
2023-01-30T05:58:53.520Z,102134.75
2023-01-30T06:01:21.804Z,102135.75
2023-01-30T06:03:50.228Z,102137.94
2023-01-30T06:06:19.999Z,102139.97
2023-01-30T06:08:48.279Z,102154.16
2023-01-30T06:11:18.175Z,102163.28
2023-01-30T06:13:46.502Z,102162.63
2023-01-30T06:16:16.414Z,102160.06
2023-01-30T06:18:46.073Z,102159.75
2023-01-30T06:21:15.090Z,102167.19
2023-01-30T06:23:45.053Z,102175.13
2023-01-30T06:26:13.429Z,102170.72
2023-01-30T06:28:41.986Z,102170.91
2023-01-30T06:31:10.056Z,102175.59
2023-01-30T06:33:38.163Z,102185.75
2023-01-30T06:36:06.666Z,102183.72
2023-01-30T06:38:34.758Z,102192.69
2023-01-30T06:41:04.147Z,102193.31
2023-01-30T06:43:32.160Z,102193.84
2023-01-30T06:46:00.597Z,102206.31
2023-01-30T06:48:28.765Z,102202.88
2023-01-30T06:50:56.799Z,102197.47
2023-01-30T06:53:30.372Z,102214.34
2023-01-30T06:55:58.865Z,102213.28
2023-01-30T06:58:28.673Z,102217.00
2023-01-30T07:00:57.009Z,102230.16
2023-01-30T07:03:25.240Z,102241.28
2023-01-30T07:05:53.305Z,102249.84
2023-01-30T07:08:23.258Z,102253.06
2023-01-30T07:10:52.536Z,102258.44
2023-01-30T07:13:20.526Z,102260.78
2023-01-30T07:15:50.599Z,102271.34
2023-01-30T07:18:18.611Z,102277.25
2023-01-30T07:20:48.711Z,102284.25
2023-01-30T07:23:17.954Z,102297.38
2023-01-30T07:25:46.099Z,102301.81
2023-01-30T07:28:14.252Z,102302.13
2023-01-30T07:30:42.395Z,102304.16
2023-01-30T07:33:11.820Z,102315.56
2023-01-30T07:35:40.231Z,102311.34
2023-01-30T07:38:08.235Z,102319.03
2023-01-30T07:40:36.543Z,102321.59
2023-01-30T07:43:06.214Z,102331.47
2023-01-30T07:45:37.854Z,102323.69
2023-01-30T07:48:05.993Z,102330.31
2023-01-30T07:50:35.669Z,102332.03
2023-01-30T07:53:05.253Z,102343.59
2023-01-30T07:55:33.823Z,102343.41
2023-01-30T07:58:02.178Z,102341.81
2023-01-30T08:00:30.606Z,102354.19
2023-01-30T08:02:58.890Z,102364.69
2023-01-30T08:05:27.141Z,102366.13
2023-01-30T08:08:01.047Z,102371.00
2023-01-30T08:10:30.051Z,102362.50
2023-01-30T08:12:58.228Z,102336.97
2023-01-30T08:15:26.486Z,102330.03
2023-01-30T08:17:56.254Z,102323.78
2023-01-30T08:20:24.897Z,102330.34
2023-01-30T08:22:52.888Z,102317.69
2023-01-30T08:25:22.999Z,102326.00
2023-01-30T08:28:18.862Z,102331.78
2023-01-30T08:30:46.906Z,102332.41
2023-01-30T08:33:15.021Z,102341.03
2023-01-30T08:35:43.088Z,102347.56
2023-01-30T08:38:11.211Z,102363.06
2023-01-30T08:40:40.747Z,102371.00
2023-01-30T08:43:09.289Z,102382.94
2023-01-30T08:45:37.636Z,102383.34
2023-01-30T08:48:07.210Z,102391.97
2023-01-30T08:50:35.427Z,102395.88
2023-01-30T08:53:07.872Z,102398.75
2023-01-30T08:55:40.484Z,102397.59
2023-01-30T08:58:33.661Z,102383.88
2023-01-30T09:01:06.749Z,102389.13
2023-01-30T09:03:35.060Z,102398.19
2023-01-30T09:06:03.251Z,102411.00
2023-01-30T09:08:31.405Z,102417.06
2023-01-30T09:11:01.158Z,102393.50
2023-01-30T09:13:30.025Z,102395.22
2023-01-30T09:15:58.077Z,102410.78
2023-01-30T09:18:28.857Z,102411.19
2023-01-30T09:21:22.181Z,102407.47
2023-01-30T09:23:50.226Z,102400.38
2023-01-30T09:26:19.598Z,102408.56
2023-01-30T09:30:02.557Z,102415.34
2023-01-30T09:32:30.612Z,102389.91
2023-01-30T09:34:58.608Z,102399.59
2023-01-30T09:37:26.586Z,102408.72
2023-01-30T09:39:54.559Z,102422.34
2023-01-30T09:43:03.615Z,102419.97
2023-01-30T09:46:00.184Z,102428.59
2023-01-30T09:48:37.058Z,102419.19
2023-01-30T09:51:24.571Z,102420.56
2023-01-30T09:54:05.584Z,102424.59
2023-01-30T09:56:33.677Z,102426.53
2023-01-30T09:59:05.702Z,102436.16
2023-01-30T10:01:43.011Z,102445.25
2023-01-30T10:04:17.010Z,102453.03
2023-01-30T10:06:55.124Z,102450.06
2023-01-30T10:09:39.780Z,102450.34
2023-01-30T10:12:20.297Z,102451.13
2023-01-30T10:15:15.746Z,102448.78
2023-01-30T10:17:59.101Z,102459.53
2023-01-30T10:20:39.584Z,102452.72
2023-01-30T10:23:26.905Z,102447.56
2023-01-30T10:25:58.810Z,102434.66
2023-01-30T10:28:30.579Z,102448.75
2023-01-30T10:31:06.118Z,102447.75
2023-01-30T10:33:37.762Z,102457.69
2023-01-30T10:36:11.427Z,102472.91
2023-01-30T10:38:45.754Z,102465.38
2023-01-30T10:41:22.214Z,102468.78
2023-01-30T10:43:59.641Z,102466.59
2023-01-30T10:46:54.812Z,102466.47
2023-01-30T10:49:37.777Z,102456.88
2023-01-30T10:52:18.329Z,102480.34
2023-01-30T10:54:55.821Z,102486.97
2023-01-30T10:57:32.382Z,102497.84
2023-01-30T11:00:05.612Z,102483.78
2023-01-30T11:02:41.985Z,102466.94
2023-01-30T11:05:16.859Z,102464.59
2023-01-30T11:07:48.086Z,102468.66
2023-01-30T11:10:18.458Z,102473.41
2023-01-30T11:12:46.794Z,102476.47
2023-01-30T11:15:14.802Z,102470.44
2023-01-30T11:17:46.310Z,102469.09
2023-01-30T11:20:17.576Z,102471.47
2023-01-30T11:22:55.047Z,102479.25
2023-01-30T11:25:24.250Z,102499.06
2023-01-30T11:27:57.793Z,102495.91
2023-01-30T11:30:29.511Z,102489.81
2023-01-30T11:33:11.987Z,102499.31
2023-01-30T11:35:45.306Z,102482.94
2023-01-30T11:38:21.110Z,102471.94
2023-01-30T11:40:49.142Z,102479.09
2023-01-30T11:43:17.136Z,102479.72
2023-01-30T11:45:49.214Z,102483.56
2023-01-30T11:48:33.973Z,102481.84
2023-01-30T11:51:11.999Z,102487.69
2023-01-30T11:53:42.963Z,102474.72
2023-01-30T11:56:18.350Z,102470.53
2023-01-30T11:58:58.089Z,102461.06
2023-01-30T12:01:30.405Z,102474.09
2023-01-30T12:04:00.514Z,102480.38
2023-01-30T12:06:33.233Z,102474.28
2023-01-30T12:09:01.373Z,102475.81
2023-01-30T12:11:32.348Z,102479.56
2023-01-30T12:14:18.194Z,102470.88
2023-01-30T12:16:55.164Z,102472.78
2023-01-30T12:19:44.378Z,102469.38
2023-01-30T12:22:22.793Z,102479.84
2023-01-30T12:24:59.218Z,102481.38
2023-01-30T12:27:39.830Z,102489.69
2023-01-30T12:30:20.864Z,102481.88
2023-01-30T12:32:49.114Z,102473.72
2023-01-30T12:35:20.014Z,102466.91
2023-01-30T12:38:03.344Z,102469.28
2023-01-30T12:40:45.982Z,102477.75
2023-01-30T12:43:40.983Z,102479.34
2023-01-30T12:46:23.024Z,102483.44
2023-01-30T12:49:11.002Z,102484.78
2023-01-30T12:51:56.662Z,102480.72
2023-01-30T12:54:39.928Z,102473.13
2023-01-30T12:57:23.015Z,102471.38
2023-01-30T13:00:03.380Z,102461.84
2023-01-30T13:02:49.967Z,102472.22
2023-01-30T13:05:34.220Z,102476.25
2023-01-30T13:08:19.988Z,102474.81
2023-01-30T13:10:53.058Z,102462.94
2023-01-30T13:13:26.929Z,102466.81
2023-01-30T13:16:03.470Z,102480.97
2023-01-30T13:19:25.362Z,102468.44
2023-01-30T13:21:59.853Z,102477.44
2023-01-30T13:24:44.127Z,102472.97
2023-01-30T13:27:18.414Z,102460.06
2023-01-30T13:29:49.135Z,102446.63
2023-01-30T13:32:28.230Z,102449.13
2023-01-30T13:34:59.081Z,102444.94
2023-01-30T13:37:28.515Z,102444.56
2023-01-30T13:40:00.977Z,102446.03
2023-01-30T13:42:34.216Z,102443.13
2023-01-30T13:45:05.369Z,102446.25
2023-01-30T13:47:47.410Z,102449.97
2023-01-30T13:50:34.965Z,102457.88
2023-01-30T13:53:09.624Z,102465.38
2023-01-30T13:55:48.511Z,102462.72
2023-01-30T13:58:35.686Z,102468.91
2023-01-30T14:01:04.058Z,102466.69
2023-01-30T14:03:33.574Z,102468.28
2023-01-30T14:06:40.387Z,102460.00
2023-01-30T14:09:21.337Z,102452.47
2023-01-30T14:11:58.218Z,102451.94
2023-01-30T14:14:30.319Z,102452.09
2023-01-30T14:17:09.921Z,102452.34
2023-01-30T14:19:41.897Z,102450.88
2023-01-30T14:22:30.850Z,102454.91
2023-01-30T14:25:44.964Z,102456.00
2023-01-30T14:28:49.874Z,102450.53
2023-01-30T14:31:52.034Z,102463.00
2023-01-30T14:34:46.009Z,102473.31
2023-01-30T14:37:57.684Z,102467.16
2023-01-30T14:40:33.956Z,102480.22
2023-01-30T14:43:48.522Z,102483.47
2023-01-30T14:46:42.758Z,102483.41
2023-01-30T14:49:50.328Z,102486.69
2023-01-30T14:52:39.109Z,102498.13
2023-01-30T14:55:21.038Z,102500.50
2023-01-30T14:57:56.978Z,102506.31
2023-01-30T15:01:15.336Z,102493.72
2023-01-30T15:03:48.486Z,102498.84
2023-01-30T15:06:19.756Z,102499.19
2023-01-30T15:08:48.409Z,102500.88
2023-01-30T15:11:23.370Z,102505.63
2023-01-30T15:14:07.751Z,102513.25
2023-01-30T15:16:59.750Z,102508.00
2023-01-30T15:19:44.982Z,102508.34
2023-01-30T15:22:23.084Z,102508.84
2023-01-30T15:25:15.511Z,102501.38
2023-01-30T15:27:57.062Z,102516.81
2023-01-30T15:30:40.012Z,102515.78
2023-01-30T15:33:22.933Z,102533.56
2023-01-30T15:35:57.793Z,102533.75
2023-01-30T15:38:32.451Z,102532.22
2023-01-30T15:45:40.702Z,102541.81
2023-01-30T15:48:29.738Z,102552.34
2023-01-30T15:51:00.950Z,102552.00
2023-01-30T15:53:32.238Z,102550.28
2023-01-30T15:56:01.886Z,102568.91
2023-01-30T15:58:31.397Z,102567.56
2023-01-30T16:01:02.053Z,102576.31
2023-01-30T16:03:35.328Z,102582.72
2023-01-30T16:06:04.389Z,102581.72
2023-01-30T16:08:36.169Z,102579.88
2023-01-30T16:11:04.698Z,102574.13
2023-01-30T16:13:33.405Z,102590.50
2023-01-30T16:16:05.143Z,102581.69
2023-01-30T16:18:37.738Z,102570.94
2023-01-30T16:21:09.511Z,102587.69
2023-01-30T16:23:42.529Z,102607.25
2023-01-30T16:26:18.066Z,102595.25
2023-01-30T16:32:54.012Z,102596.78
2023-01-30T16:35:32.544Z,102604.84
2023-01-30T16:38:02.591Z,102613.13
2023-01-30T16:40:45.240Z,102614.28
2023-01-30T16:43:21.659Z,102617.97
2023-01-30T16:46:38.196Z,102628.66
2023-01-30T16:49:06.787Z,102626.56
2023-01-30T16:51:35.077Z,102636.22
2023-01-30T16:54:05.471Z,102628.41
2023-01-30T16:56:35.923Z,102642.97
2023-01-30T16:59:04.315Z,102634.53
2023-01-30T17:01:38.292Z,102635.50
2023-01-30T17:04:16.267Z,102638.47
2023-01-30T17:06:44.392Z,102637.25
2023-01-30T17:10:09.796Z,102652.97
2023-01-30T17:12:53.232Z,102651.22
2023-01-30T17:15:31.860Z,102657.78
2023-01-30T17:18:00.167Z,102660.47
2023-01-30T17:20:41.646Z,102666.88
2023-01-30T17:23:11.187Z,102659.19
2023-01-30T17:25:42.953Z,102661.50
2023-01-30T17:28:18.644Z,102669.44
2023-01-30T17:30:46.797Z,102682.41
2023-01-30T17:33:14.923Z,102679.72
2023-01-30T17:35:42.918Z,102676.41
2023-01-30T17:38:12.462Z,102672.06
2023-01-30T17:40:41.546Z,102670.50
2023-01-30T17:43:11.682Z,102669.13
2023-01-30T17:45:41.178Z,102668.75
2023-01-30T17:48:13.010Z,102669.38
2023-01-30T17:50:41.350Z,102675.53
2023-01-30T17:53:09.393Z,102672.56
2023-01-30T17:55:37.457Z,102677.44
2023-01-30T17:58:05.679Z,102683.91
2023-01-30T18:00:33.705Z,102680.50
2023-01-30T18:03:03.255Z,102678.00
2023-01-30T18:05:31.327Z,102681.31
2023-01-30T18:07:59.357Z,102683.19
2023-01-30T18:10:27.446Z,102690.19
2023-01-30T18:12:55.562Z,102688.78
2023-01-30T18:15:23.692Z,102686.25
2023-01-30T18:17:54.997Z,102695.31
2023-01-30T18:20:24.524Z,102701.88
2023-01-30T18:22:52.799Z,102702.28
2023-01-30T18:25:21.281Z,102705.59
2023-01-30T18:27:50.426Z,102702.66
2023-01-30T18:30:19.810Z,102706.91
2023-01-30T18:32:53.700Z,102713.88
2023-01-30T18:35:24.485Z,102707.06
2023-01-30T18:37:52.581Z,102715.88
2023-01-30T18:40:21.870Z,102714.50
2023-01-30T18:42:50.237Z,102717.59
2023-01-30T18:45:18.423Z,102710.78
2023-01-30T18:47:46.436Z,102712.63
2023-01-30T18:50:14.521Z,102716.47
2023-01-30T18:52:43.998Z,102716.16
2023-01-30T18:55:12.155Z,102717.31
2023-01-30T18:57:40.194Z,102717.59
2023-01-30T19:00:09.640Z,102723.56
2023-01-30T19:02:37.994Z,102726.38
2023-01-30T19:05:06.700Z,102714.31
2023-01-30T19:08:01.073Z,102721.69
2023-01-30T19:10:30.711Z,102712.22
2023-01-30T19:13:16.160Z,102720.41
2023-01-30T19:15:44.503Z,102716.41
2023-01-30T19:18:12.592Z,102717.16
2023-01-30T19:20:40.654Z,102724.78
2023-01-30T19:23:09.997Z,102716.09
2023-01-30T19:25:37.968Z,102703.78
2023-01-30T19:28:06.581Z,102699.78
2023-01-30T19:30:34.920Z,102699.22
2023-01-30T19:33:03.202Z,102701.88
2023-01-30T19:35:31.422Z,102709.13
2023-01-30T19:38:00.395Z,102713.38
2023-01-30T19:40:29.839Z,102709.56
2023-01-30T19:43:05.743Z,102712.53
2023-01-30T19:45:38.544Z,102720.72
2023-01-30T19:48:08.755Z,102720.16
2023-01-30T19:50:40.089Z,102724.59
2023-01-30T19:53:08.116Z,102720.31
2023-01-30T19:55:37.715Z,102724.13
2023-01-30T19:58:05.934Z,102736.03
2023-01-30T20:00:35.035Z,102732.81
2023-01-30T20:03:03.421Z,102733.63
2023-01-30T20:05:31.550Z,102719.19
2023-01-30T20:07:59.679Z,102727.13
2023-01-30T20:10:28.075Z,102723.69
2023-01-30T20:12:57.675Z,102726.56
2023-01-30T20:15:25.841Z,102725.09
2023-01-30T20:17:57.077Z,102735.03
2023-01-30T20:20:24.958Z,102733.06
2023-01-30T20:22:53.144Z,102737.00
2023-01-30T20:25:21.568Z,102733.78
2023-01-30T20:27:49.785Z,102732.22
2023-01-30T20:30:20.088Z,102722.84
2023-01-30T20:32:48.401Z,102719.19
2023-01-30T20:35:17.721Z,102723.69
2023-01-30T20:37:45.958Z,102726.81
2023-01-30T20:40:14.895Z,102723.25
2023-01-30T20:42:43.087Z,102727.13
2023-01-30T20:45:12.181Z,102729.25
2023-01-30T20:47:42.109Z,102725.94
2023-01-30T20:50:13.772Z,102730.09
2023-01-30T20:52:42.596Z,102725.94
2023-01-30T20:55:10.981Z,102721.72
2023-01-30T20:57:39.474Z,102719.56
2023-01-30T21:00:09.510Z,102715.44
2023-01-30T21:02:38.229Z,102712.03
2023-01-30T21:05:08.987Z,102724.38
2023-01-30T21:07:37.114Z,102710.34
2023-01-30T21:10:05.705Z,102726.50
2023-01-30T21:12:33.787Z,102723.91
2023-01-30T21:15:01.919Z,102715.97
2023-01-30T21:17:30.036Z,102721.78
2023-01-30T21:19:58.271Z,102722.50
2023-01-30T21:22:27.792Z,102701.50
2023-01-30T21:24:55.854Z,102713.97
2023-01-30T21:27:23.999Z,102715.78
2023-01-30T21:29:52.115Z,102711.09
2023-01-30T21:32:20.332Z,102723.00
2023-01-30T21:34:48.354Z,102714.19
2023-01-30T21:37:34.067Z,102712.75
2023-01-30T21:40:23.527Z,102722.09
2023-01-30T21:43:09.333Z,102713.44
2023-01-30T21:45:37.819Z,102723.13
2023-01-30T21:48:06.813Z,102718.88
2023-01-30T21:50:35.154Z,102718.28
2023-01-30T21:53:03.599Z,102724.22
2023-01-30T21:55:33.076Z,102715.41
2023-01-30T21:58:01.326Z,102717.13
2023-01-30T22:00:29.486Z,102708.91
2023-01-30T22:02:57.773Z,102700.59
2023-01-30T22:05:25.816Z,102709.06
2023-01-30T22:07:54.306Z,102707.81
2023-01-30T22:10:23.225Z,102708.91
2023-01-30T22:12:52.657Z,102714.19
2023-01-30T22:15:22.672Z,102712.72
2023-01-30T22:17:50.907Z,102711.59
2023-01-30T22:20:19.085Z,102714.00
2023-01-30T22:22:47.305Z,102719.09
2023-01-30T22:25:19.049Z,102716.25
2023-01-30T22:27:47.406Z,102719.47
2023-01-30T22:30:17.522Z,102722.06
2023-01-30T22:32:45.889Z,102725.59
2023-01-30T22:35:14.021Z,102728.81
2023-01-30T22:37:41.984Z,102727.25
2023-01-30T22:40:11.367Z,102735.31
2023-01-30T22:42:39.532Z,102732.84
2023-01-30T22:45:08.806Z,102724.09
2023-01-30T22:47:38.264Z,102722.34
2023-01-30T22:50:07.740Z,102726.78
2023-01-30T22:52:35.866Z,102724.09
2023-01-30T22:55:03.933Z,102723.34
2023-01-30T22:57:32.111Z,102724.78
2023-01-30T23:00:00.217Z,102721.66
2023-01-30T23:02:28.496Z,102712.34
2023-01-30T23:04:58.496Z,102716.03
2023-01-30T23:07:26.637Z,102711.59
2023-01-30T23:09:54.730Z,102714.19
2023-01-30T23:12:40.387Z,102698.16
2023-01-30T23:15:09.284Z,102702.56
2023-01-30T23:17:54.847Z,102702.84
2023-01-30T23:20:24.258Z,102701.59
2023-01-30T23:22:53.302Z,102697.19
2023-01-30T23:25:22.248Z,102683.50
2023-01-30T23:27:50.491Z,102684.47
2023-01-30T23:30:18.979Z,102686.19
2023-01-30T23:32:48.102Z,102680.06
2023-01-30T23:35:16.380Z,102668.31
2023-01-30T23:38:03.446Z,102678.38
2023-01-30T23:40:31.518Z,102662.91
2023-01-30T23:42:59.595Z,102656.69
2023-01-30T23:45:28.944Z,102657.66
2023-01-30T23:47:57.001Z,102647.91
2023-01-30T23:50:25.150Z,102651.59
2023-01-30T23:52:54.547Z,102645.22
2023-01-30T23:55:22.613Z,102640.84
2023-01-30T23:57:50.937Z,102634.06
